Flight Track Log - Related Links

Times and Time Zones

All times are in EDT time to prevent confusion due to time zone crossing. See the WJA197 flight status page for this flight to view local times or setup timezone preferences in your user account.


Time Position Orientation Groundspeed Altitude Reporting Facility
EDT Latitude Longitude Course Direction KTS MPH feet Rate Location/Type
Sat 08:54:15 PM 49.9138 -119.5253 149° Southeast  Level FlightAware Approximate
Sat 08:55:25 PM 49.8500 -119.4667 258° West 200 230 7,200  Level Vancouver Center
Sat 08:56:25 PM 49.8333 -119.5833 259° West 270 311 10,700 3,250 Climbing Vancouver Center
Sat 08:57:25 PM 49.8167 -119.7167 246° West 310 357 13,700 3,450 Climbing Vancouver Center
Sat 08:58:25 PM 49.7833 -119.8333 261° West 330 380 17,600 3,900 Climbing Vancouver Center
Sat 08:59:25 PM 49.7667 -120.0000 249° West 340 391 21,500 3,200 Climbing Vancouver Center
Sat 09:00:25 PM 49.7333 -120.1333 260° West 340 391 24,000 1,250 Climbing Vancouver Center
Sat 09:01:25 PM 49.7167 -120.2833 249° West 340 391 24,000  Level Vancouver Center
Sat 09:02:25 PM 49.6833 -120.4167 259° West 340 391 24,000  Level Vancouver Center
Sat 09:03:25 PM 49.6667 -120.5500 249° West 340 391 24,000  Level Vancouver Center
Sat 09:04:25 PM 49.6333 -120.6833 259° West 330 380 24,000  Level Vancouver Center
Sat 09:05:25 PM 49.6167 -120.8167 251° West 330 380 24,000  Level Vancouver Center
Sat 09:06:25 PM 49.5833 -120.9667 249° West 330 380 24,000  Level Vancouver Center
Sat 09:07:25 PM 49.5500 -121.1000 270° West 330 380 24,000  Level Vancouver Center
Sat 09:08:25 PM 49.5500 -121.2333 251° West 330 380 24,000  Level Vancouver Center
Sat 09:09:25 PM 49.5167 -121.3833 249° West 340 391 24,000  Level Vancouver Center
Sat 09:10:25 PM 49.4833 -121.5167 258° West 340 391 24,000  Level Vancouver Center
Sat 09:11:25 PM 49.4667 -121.6333 253° West 340 391 24,000  Level Vancouver Center
Sat 09:12:25 PM 49.4333 -121.8000 249° West 340 391 24,000  Level Vancouver Center
Sat 09:13:25 PM 49.4000 -121.9333 260° West 340 391 24,000  Level Vancouver Center
Sat 09:14:25 PM 49.3833 -122.0833 259° West 330 380 24,000  Level Vancouver Center
Sat 09:15:25 PM 49.3667 -122.2167 246° West 330 380 24,000  Level Vancouver Center
Sat 09:16:25 PM 49.3333 -122.3333 249° West 330 380 24,000 -800 Level Vancouver Center
Sat 09:17:25 PM 49.3000 -122.4667 249° West 330 380 22,400 -1,700 Descending Vancouver Center
Sat 09:18:25 PM 49.2667 -122.6000 249° West 320 368 20,600 -1,600 Descending Vancouver Center
Sat 09:19:25 PM 49.2333 -122.7333 233° Southwest 310 357 19,200 -1,300 Descending Vancouver Center
Sat 09:20:25 PM 49.1833 -122.8333 237° Southwest 320 368 18,000 -1,100 Descending Vancouver Center
Sat 09:21:25 PM 49.1333 -122.9500 246° West 310 357 17,000 -1,150 Descending Vancouver Center
Sat 09:22:25 PM 49.1000 -123.0667 233° Southwest 300 345 15,700 -1,450 Descending Vancouver Center
Sat 09:23:25 PM 49.0500 -123.1667 206° Southwest 290 334 14,100 -1,350 Descending Vancouver Center
Sat 09:24:25 PM 48.9833 -123.2167 189° South 280 322 13,000 -650 Descending Vancouver Center
Sat 09:25:25 PM 48.9167 -123.2333 213° Southwest 270 311 12,800 -1,050 Descending Vancouver Center
Sat 09:26:25 PM 48.8500 -123.3000 213° Southwest 270 311 10,900 -1,850 Descending Vancouver Center
Sat 09:27:25 PM 48.7833 -123.3667 253° West 250 288 9,100 -1,700 Descending Vancouver Center
Sat 09:28:25 PM 48.7667 -123.4500 284° West 240 276 7,500 -1,100 Descending Vancouver Center
Sat 09:29:25 PM 48.7833 -123.5500 270° West 230 265 6,900 -600 Descending Vancouver Center
Sat 09:30:25 PM 48.7833 -123.6500 243° Southwest 210 242 6,300 -850 Descending Vancouver Center
Sat 09:31:25 PM 48.7667 -123.7000 192° South 200 230 5,200 -1,050 Descending Vancouver Center
Sat 09:32:25 PM 48.7167 -123.7167 135° Southeast 180 207 4,200 -950 Descending Vancouver Center
Sat 09:33:25 PM 48.6833 -123.6667 111° Southeast 180 207 3,300 -900 Descending Vancouver Center
Sat 09:34:25 PM 48.6667 -123.6000 117° Southeast 180 207 2,400 -850 Descending Vancouver Center
Sat 09:35:25 PM 48.6500 -123.5500 117° Southeast 140 161 1,600 -750 Descending Vancouver Center
Sat 09:36:25 PM 48.6333 -123.5000 90° East 130 150 900 -650 Descending Vancouver Center
Sat 09:37:25 PM 48.6333 -123.4500 90° East 120 138 300 -600 Descending Vancouver Center

Login

Don't have an account? Register now (free) for customized features, flight alerts, and more!